sensor_id;sensor_type;location;lat;lon;timestamp;P1;durP1;ratioP1;P2;durP2;ratioP2
42006;SDS011;27696;42.704;23.304;2022-08-19T00:02:05;10.05;;;6.20;;
42006;SDS011;27696;42.704;23.304;2022-08-19T00:04:33;7.43;;;5.10;;
42006;SDS011;27696;42.704;23.304;2022-08-19T00:07:02;8.60;;;5.85;;
42006;SDS011;27696;42.704;23.304;2022-08-19T00:09:29;8.00;;;5.60;;
42006;SDS011;27696;42.704;23.304;2022-08-19T00:11:56;10.68;;;5.90;;
42006;SDS011;27696;42.704;23.304;2022-08-19T00:14:23;7.97;;;6.10;;
42006;SDS011;27696;42.704;23.304;2022-08-19T00:16:50;8.98;;;6.00;;
42006;SDS011;27696;42.704;23.304;2022-08-19T00:19:19;7.22;;;5.60;;
42006;SDS011;27696;42.704;23.304;2022-08-19T00:21:45;8.32;;;6.10;;
42006;SDS011;27696;42.704;23.304;2022-08-19T00:24:11;7.38;;;5.72;;
42006;SDS011;27696;42.704;23.304;2022-08-19T00:26:38;9.07;;;6.18;;
42006;SDS011;27696;42.704;23.304;2022-08-19T00:29:05;6.40;;;5.75;;
42006;SDS011;27696;42.704;23.304;2022-08-19T00:31:31;13.18;;;5.90;;
42006;SDS011;27696;42.704;23.304;2022-08-19T00:33:57;8.55;;;6.13;;
42006;SDS011;27696;42.704;23.304;2022-08-19T00:36:23;9.60;;;5.93;;
42006;SDS011;27696;42.704;23.304;2022-08-19T00:38:48;11.05;;;6.05;;
42006;SDS011;27696;42.704;23.304;2022-08-19T00:41:17;9.23;;;6.32;;
42006;SDS011;27696;42.704;23.304;2022-08-19T00:46:33;9.88;;;6.07;;
42006;SDS011;27696;42.704;23.304;2022-08-19T00:49:02;8.80;;;6.18;;
42006;SDS011;27696;42.704;23.304;2022-08-19T00:51:34;7.68;;;6.03;;
42006;SDS011;27696;42.704;23.304;2022-08-19T00:54:00;7.82;;;5.90;;
42006;SDS011;27696;42.704;23.304;2022-08-19T00:56:27;9.90;;;6.30;;
42006;SDS011;27696;42.704;23.304;2022-08-19T00:58:54;8.73;;;6.15;;
42006;SDS011;27696;42.704;23.304;2022-08-19T01:01:21;7.30;;;5.70;;
42006;SDS011;27696;42.704;23.304;2022-08-19T01:03:47;8.30;;;5.97;;
42006;SDS011;27696;42.704;23.304;2022-08-19T01:06:12;7.28;;;6.57;;
42006;SDS011;27696;42.704;23.304;2022-08-19T01:08:38;17.63;;;6.35;;
42006;SDS011;27696;42.704;23.304;2022-08-19T01:11:03;7.90;;;6.40;;
42006;SDS011;27696;42.704;23.304;2022-08-19T01:13:30;12.48;;;6.13;;
42006;SDS011;27696;42.704;23.304;2022-08-19T01:15:59;10.35;;;6.20;;
42006;SDS011;27696;42.704;23.304;2022-08-19T01:18:27;8.63;;;5.78;;
42006;SDS011;27696;42.704;23.304;2022-08-19T01:20:55;8.23;;;6.10;;
42006;SDS011;27696;42.704;23.304;2022-08-19T01:23:27;11.43;;;6.50;;
42006;SDS011;27696;42.704;23.304;2022-08-19T01:26:08;12.50;;;6.07;;
42006;SDS011;27696;42.704;23.304;2022-08-19T01:28:36;11.25;;;6.38;;
42006;SDS011;27696;42.704;23.304;2022-08-19T01:31:03;7.32;;;5.72;;
42006;SDS011;27696;42.704;23.304;2022-08-19T01:33:30;8.15;;;5.40;;
42006;SDS011;27696;42.704;23.304;2022-08-19T01:36:22;6.47;;;5.78;;
42006;SDS011;27696;42.704;23.304;2022-08-19T01:39:03;8.20;;;6.05;;
42006;SDS011;27696;42.704;23.304;2022-08-19T01:41:34;7.82;;;5.75;;
42006;SDS011;27696;42.704;23.304;2022-08-19T01:44:00;6.03;;;5.28;;
42006;SDS011;27696;42.704;23.304;2022-08-19T01:46:28;7.47;;;5.95;;
42006;SDS011;27696;42.704;23.304;2022-08-19T01:48:55;7.38;;;5.93;;
42006;SDS011;27696;42.704;23.304;2022-08-19T01:51:21;14.10;;;5.70;;
42006;SDS011;27696;42.704;23.304;2022-08-19T01:53:47;14.18;;;6.30;;
42006;SDS011;27696;42.704;23.304;2022-08-19T01:56:13;9.80;;;6.47;;
42006;SDS011;27696;42.704;23.304;2022-08-19T01:58:41;9.68;;;5.70;;
42006;SDS011;27696;42.704;23.304;2022-08-19T02:01:12;13.77;;;6.03;;
42006;SDS011;27696;42.704;23.304;2022-08-19T02:03:38;11.25;;;5.78;;
42006;SDS011;27696;42.704;23.304;2022-08-19T02:06:04;10.90;;;6.82;;
42006;SDS011;27696;42.704;23.304;2022-08-19T02:08:30;7.03;;;6.40;;
42006;SDS011;27696;42.704;23.304;2022-08-19T02:10:59;6.68;;;6.03;;
42006;SDS011;27696;42.704;23.304;2022-08-19T02:13:25;9.70;;;6.57;;
42006;SDS011;27696;42.704;23.304;2022-08-19T02:15:51;9.13;;;6.75;;
42006;SDS011;27696;42.704;23.304;2022-08-19T02:18:17;17.63;;;6.68;;
42006;SDS011;27696;42.704;23.304;2022-08-19T02:20:43;19.67;;;7.65;;
42006;SDS011;27696;42.704;23.304;2022-08-19T02:23:10;12.05;;;6.25;;
42006;SDS011;27696;42.704;23.304;2022-08-19T02:25:37;11.63;;;6.18;;
42006;SDS011;27696;42.704;23.304;2022-08-19T02:28:03;6.78;;;6.07;;
42006;SDS011;27696;42.704;23.304;2022-08-19T02:30:29;15.02;;;6.70;;
42006;SDS011;27696;42.704;23.304;2022-08-19T02:32:54;9.23;;;6.45;;
42006;SDS011;27696;42.704;23.304;2022-08-19T02:35:20;7.30;;;6.65;;
42006;SDS011;27696;42.704;23.304;2022-08-19T02:37:46;10.05;;;6.88;;
42006;SDS011;27696;42.704;23.304;2022-08-19T02:40:30;12.07;;;6.57;;
42006;SDS011;27696;42.704;23.304;2022-08-19T02:43:04;12.50;;;7.35;;
42006;SDS011;27696;42.704;23.304;2022-08-19T02:45:35;8.07;;;7.27;;
42006;SDS011;27696;42.704;23.304;2022-08-19T02:48:03;8.20;;;7.30;;
42006;SDS011;27696;42.704;23.304;2022-08-19T02:50:29;9.88;;;7.93;;
42006;SDS011;27696;42.704;23.304;2022-08-19T02:52:54;8.02;;;7.15;;
42006;SDS011;27696;42.704;23.304;2022-08-19T02:55:20;7.82;;;7.13;;
42006;SDS011;27696;42.704;23.304;2022-08-19T02:57:46;7.50;;;6.78;;
42006;SDS011;27696;42.704;23.304;2022-08-19T03:00:12;10.80;;;7.47;;
42006;SDS011;27696;42.704;23.304;2022-08-19T03:02:38;8.82;;;7.60;;
42006;SDS011;27696;42.704;23.304;2022-08-19T03:05:05;8.82;;;7.93;;
42006;SDS011;27696;42.704;23.304;2022-08-19T03:07:31;9.40;;;7.38;;
42006;SDS011;27696;42.704;23.304;2022-08-19T03:09:57;10.88;;;7.72;;
42006;SDS011;27696;42.704;23.304;2022-08-19T03:12:22;13.07;;;7.78;;
42006;SDS011;27696;42.704;23.304;2022-08-19T03:14:48;9.23;;;7.43;;
42006;SDS011;27696;42.704;23.304;2022-08-19T03:17:13;19.45;;;7.55;;
42006;SDS011;27696;42.704;23.304;2022-08-19T03:19:39;22.40;;;8.88;;
42006;SDS011;27696;42.704;23.304;2022-08-19T03:22:04;12.98;;;7.53;;
42006;SDS011;27696;42.704;23.304;2022-08-19T03:24:30;9.70;;;7.75;;
42006;SDS011;27696;42.704;23.304;2022-08-19T03:26:57;8.52;;;7.65;;
42006;SDS011;27696;42.704;23.304;2022-08-19T03:29:24;8.10;;;7.30;;
42006;SDS011;27696;42.704;23.304;2022-08-19T03:31:51;12.13;;;7.93;;
42006;SDS011;27696;42.704;23.304;2022-08-19T03:34:23;15.68;;;8.10;;
42006;SDS011;27696;42.704;23.304;2022-08-19T03:36:57;12.50;;;7.60;;
42006;SDS011;27696;42.704;23.304;2022-08-19T03:39:27;11.60;;;10.30;;
42006;SDS011;27696;42.704;23.304;2022-08-19T03:41:53;10.75;;;8.55;;
42006;SDS011;27696;42.704;23.304;2022-08-19T03:44:24;11.70;;;8.63;;
42006;SDS011;27696;42.704;23.304;2022-08-19T03:46:51;8.90;;;7.75;;
42006;SDS011;27696;42.704;23.304;2022-08-19T03:49:20;9.07;;;7.68;;
42006;SDS011;27696;42.704;23.304;2022-08-19T03:51:48;10.75;;;8.13;;
42006;SDS011;27696;42.704;23.304;2022-08-19T03:54:16;13.30;;;7.93;;
42006;SDS011;27696;42.704;23.304;2022-08-19T03:56:44;10.38;;;8.52;;
42006;SDS011;27696;42.704;23.304;2022-08-19T03:59:13;10.63;;;8.02;;
42006;SDS011;27696;42.704;23.304;2022-08-19T04:01:42;11.63;;;9.05;;
42006;SDS011;27696;42.704;23.304;2022-08-19T04:04:08;10.80;;;8.70;;
42006;SDS011;27696;42.704;23.304;2022-08-19T04:06:35;14.52;;;8.85;;
42006;SDS011;27696;42.704;23.304;2022-08-19T04:09:04;11.55;;;8.30;;
42006;SDS011;27696;42.704;23.304;2022-08-19T04:11:34;13.25;;;9.48;;
42006;SDS011;27696;42.704;23.304;2022-08-19T04:14:07;25.33;;;9.70;;
42006;SDS011;27696;42.704;23.304;2022-08-19T04:16:34;20.92;;;9.90;;
42006;SDS011;27696;42.704;23.304;2022-08-19T04:19:00;20.63;;;10.10;;
42006;SDS011;27696;42.704;23.304;2022-08-19T04:21:28;17.30;;;9.57;;
42006;SDS011;27696;42.704;23.304;2022-08-19T04:23:54;27.10;;;10.13;;
42006;SDS011;27696;42.704;23.304;2022-08-19T04:26:25;31.15;;;10.13;;
42006;SDS011;27696;42.704;23.304;2022-08-19T04:28:53;14.98;;;11.13;;
42006;SDS011;27696;42.704;23.304;2022-08-19T04:31:23;12.20;;;10.95;;
42006;SDS011;27696;42.704;23.304;2022-08-19T04:33:52;14.10;;;11.32;;
42006;SDS011;27696;42.704;23.304;2022-08-19T04:36:23;17.65;;;11.35;;
42006;SDS011;27696;42.704;23.304;2022-08-19T04:38:53;25.98;;;11.57;;
42006;SDS011;27696;42.704;23.304;2022-08-19T04:41:20;22.67;;;11.70;;
42006;SDS011;27696;42.704;23.304;2022-08-19T04:44:04;27.95;;;12.70;;
42006;SDS011;27696;42.704;23.304;2022-08-19T04:46:30;22.50;;;11.75;;
42006;SDS011;27696;42.704;23.304;2022-08-19T04:48:57;18.75;;;11.57;;
42006;SDS011;27696;42.704;23.304;2022-08-19T04:51:24;24.67;;;10.80;;
42006;SDS011;27696;42.704;23.304;2022-08-19T04:53:50;14.57;;;10.30;;
42006;SDS011;27696;42.704;23.304;2022-08-19T04:56:17;17.60;;;10.38;;
42006;SDS011;27696;42.704;23.304;2022-08-19T04:58:45;21.77;;;10.30;;
42006;SDS011;27696;42.704;23.304;2022-08-19T05:01:12;18.17;;;10.02;;
42006;SDS011;27696;42.704;23.304;2022-08-19T05:03:39;19.77;;;10.05;;
42006;SDS011;27696;42.704;23.304;2022-08-19T05:06:05;18.30;;;10.80;;
42006;SDS011;27696;42.704;23.304;2022-08-19T05:08:36;17.70;;;10.02;;
42006;SDS011;27696;42.704;23.304;2022-08-19T05:11:09;15.35;;;9.65;;
42006;SDS011;27696;42.704;23.304;2022-08-19T05:13:37;11.73;;;9.38;;
42006;SDS011;27696;42.704;23.304;2022-08-19T05:16:02;16.35;;;9.60;;
42006;SDS011;27696;42.704;23.304;2022-08-19T05:18:28;16.55;;;10.15;;
42006;SDS011;27696;42.704;23.304;2022-08-19T05:21:14;18.60;;;10.23;;
42006;SDS011;27696;42.704;23.304;2022-08-19T05:23:59;15.95;;;10.43;;
42006;SDS011;27696;42.704;23.304;2022-08-19T05:26:25;19.02;;;10.57;;
42006;SDS011;27696;42.704;23.304;2022-08-19T05:28:51;14.45;;;10.40;;
42006;SDS011;27696;42.704;23.304;2022-08-19T05:31:18;15.70;;;11.07;;
42006;SDS011;27696;42.704;23.304;2022-08-19T05:33:43;14.27;;;10.48;;
42006;SDS011;27696;42.704;23.304;2022-08-19T05:36:09;14.43;;;11.13;;
42006;SDS011;27696;42.704;23.304;2022-08-19T05:38:35;15.38;;;11.20;;
42006;SDS011;27696;42.704;23.304;2022-08-19T05:41:06;12.55;;;11.00;;
42006;SDS011;27696;42.704;23.304;2022-08-19T05:43:35;13.32;;;11.20;;
42006;SDS011;27696;42.704;23.304;2022-08-19T05:46:02;24.45;;;11.95;;
42006;SDS011;27696;42.704;23.304;2022-08-19T05:48:29;30.48;;;12.35;;
42006;SDS011;27696;42.704;23.304;2022-08-19T05:50:55;19.73;;;11.10;;
42006;SDS011;27696;42.704;23.304;2022-08-19T05:53:21;19.75;;;11.27;;
42006;SDS011;27696;42.704;23.304;2022-08-19T05:55:47;30.23;;;12.45;;
42006;SDS011;27696;42.704;23.304;2022-08-19T05:58:12;20.33;;;11.25;;
42006;SDS011;27696;42.704;23.304;2022-08-19T06:00:38;16.50;;;10.80;;
42006;SDS011;27696;42.704;23.304;2022-08-19T06:03:04;22.92;;;10.85;;
42006;SDS011;27696;42.704;23.304;2022-08-19T06:05:30;14.93;;;9.73;;
42006;SDS011;27696;42.704;23.304;2022-08-19T06:07:56;14.13;;;9.05;;
42006;SDS011;27696;42.704;23.304;2022-08-19T06:10:23;10.98;;;8.57;;
42006;SDS011;27696;42.704;23.304;2022-08-19T06:12:51;17.23;;;8.65;;
42006;SDS011;27696;42.704;23.304;2022-08-19T06:15:16;12.25;;;7.65;;
42006;SDS011;27696;42.704;23.304;2022-08-19T06:17:42;14.25;;;8.60;;
42006;SDS011;27696;42.704;23.304;2022-08-19T06:20:10;12.75;;;8.65;;
42006;SDS011;27696;42.704;23.304;2022-08-19T06:22:38;15.05;;;8.73;;
42006;SDS011;27696;42.704;23.304;2022-08-19T06:25:08;14.80;;;9.25;;
42006;SDS011;27696;42.704;23.304;2022-08-19T06:27:36;12.80;;;8.52;;
42006;SDS011;27696;42.704;23.304;2022-08-19T06:30:02;12.20;;;8.82;;
42006;SDS011;27696;42.704;23.304;2022-08-19T06:32:29;12.63;;;8.93;;
42006;SDS011;27696;42.704;23.304;2022-08-19T06:34:55;12.70;;;8.65;;
42006;SDS011;27696;42.704;23.304;2022-08-19T06:37:20;13.88;;;8.77;;
42006;SDS011;27696;42.704;23.304;2022-08-19T06:39:46;13.50;;;9.75;;
42006;SDS011;27696;42.704;23.304;2022-08-19T06:42:12;16.17;;;8.75;;
42006;SDS011;27696;42.704;23.304;2022-08-19T06:44:41;12.93;;;9.30;;
42006;SDS011;27696;42.704;23.304;2022-08-19T06:47:10;15.45;;;9.20;;
42006;SDS011;27696;42.704;23.304;2022-08-19T06:49:37;18.45;;;9.63;;
42006;SDS011;27696;42.704;23.304;2022-08-19T06:52:03;23.15;;;10.23;;
42006;SDS011;27696;42.704;23.304;2022-08-19T06:54:29;17.60;;;9.30;;
42006;SDS011;27696;42.704;23.304;2022-08-19T06:56:56;12.27;;;8.52;;
42006;SDS011;27696;42.704;23.304;2022-08-19T06:59:23;17.35;;;9.32;;
42006;SDS011;27696;42.704;23.304;2022-08-19T07:01:53;12.50;;;9.38;;
42006;SDS011;27696;42.704;23.304;2022-08-19T07:04:21;12.68;;;9.18;;
42006;SDS011;27696;42.704;23.304;2022-08-19T07:06:48;16.15;;;8.52;;
42006;SDS011;27696;42.704;23.304;2022-08-19T07:09:15;15.48;;;9.48;;
42006;SDS011;27696;42.704;23.304;2022-08-19T08:20:38;11.83;;;7.23;;
42006;SDS011;27696;42.704;23.304;2022-08-19T08:23:04;10.90;;;7.03;;
42006;SDS011;27696;42.704;23.304;2022-08-19T08:28:14;13.60;;;7.10;;
42006;SDS011;27696;42.704;23.304;2022-08-19T08:30:41;14.98;;;7.70;;
42006;SDS011;27696;42.704;23.304;2022-08-19T08:33:08;19.17;;;7.70;;
42006;SDS011;27696;42.704;23.304;2022-08-19T08:35:34;11.70;;;7.13;;
42006;SDS011;27696;42.704;23.304;2022-08-19T08:38:00;12.70;;;6.90;;
42006;SDS011;27696;42.704;23.304;2022-08-19T08:40:38;7.80;;;5.65;;
42006;SDS011;27696;42.704;23.304;2022-08-19T08:43:20;9.20;;;6.00;;
42006;SDS011;27696;42.704;23.304;2022-08-19T08:48:44;11.20;;;7.13;;
42006;SDS011;27696;42.704;23.304;2022-08-19T08:51:13;11.13;;;6.38;;
42006;SDS011;27696;42.704;23.304;2022-08-19T08:53:46;11.80;;;5.53;;
42006;SDS011;27696;42.704;23.304;2022-08-19T08:56:14;11.00;;;5.78;;
42006;SDS011;27696;42.704;23.304;2022-08-19T09:01:28;7.68;;;5.40;;
42006;SDS011;27696;42.704;23.304;2022-08-19T09:03:54;11.48;;;5.93;;
42006;SDS011;27696;42.704;23.304;2022-08-19T09:06:23;13.15;;;5.60;;
42006;SDS011;27696;42.704;23.304;2022-08-19T09:09:10;8.98;;;5.57;;
42006;SDS011;27696;42.704;23.304;2022-08-19T09:11:56;8.07;;;5.30;;
42006;SDS011;27696;42.704;23.304;2022-08-19T09:17:07;7.35;;;4.55;;
42006;SDS011;27696;42.704;23.304;2022-08-19T09:19:35;10.35;;;5.10;;
42006;SDS011;27696;42.704;23.304;2022-08-19T09:22:13;11.15;;;4.70;;
42006;SDS011;27696;42.704;23.304;2022-08-19T09:24:38;6.15;;;4.75;;
42006;SDS011;27696;42.704;23.304;2022-08-19T09:27:04;5.65;;;4.03;;
42006;SDS011;27696;42.704;23.304;2022-08-19T09:29:30;7.85;;;3.85;;
42006;SDS011;27696;42.704;23.304;2022-08-19T09:31:55;5.72;;;3.95;;
42006;SDS011;27696;42.704;23.304;2022-08-19T09:34:21;5.82;;;4.20;;
42006;SDS011;27696;42.704;23.304;2022-08-19T09:36:46;11.30;;;3.80;;
42006;SDS011;27696;42.704;23.304;2022-08-19T09:39:18;5.30;;;3.40;;
42006;SDS011;27696;42.704;23.304;2022-08-19T09:41:43;9.23;;;3.90;;
42006;SDS011;27696;42.704;23.304;2022-08-19T09:44:09;5.25;;;3.72;;
42006;SDS011;27696;42.704;23.304;2022-08-19T09:46:37;6.53;;;3.40;;
42006;SDS011;27696;42.704;23.304;2022-08-19T09:49:03;3.85;;;3.33;;
42006;SDS011;27696;42.704;23.304;2022-08-19T09:51:31;3.80;;;3.45;;
42006;SDS011;27696;42.704;23.304;2022-08-19T09:53:58;7.82;;;4.15;;
42006;SDS011;27696;42.704;23.304;2022-08-19T09:56:26;5.32;;;4.82;;
42006;SDS011;27696;42.704;23.304;2022-08-19T09:58:51;6.95;;;5.22;;
42006;SDS011;27696;42.704;23.304;2022-08-19T10:01:21;7.35;;;4.72;;
42006;SDS011;27696;42.704;23.304;2022-08-19T10:03:49;6.82;;;3.92;;
42006;SDS011;27696;42.704;23.304;2022-08-19T10:06:18;5.63;;;3.50;;
42006;SDS011;27696;42.704;23.304;2022-08-19T10:08:45;8.15;;;3.65;;
42006;SDS011;27696;42.704;23.304;2022-08-19T10:11:11;4.80;;;3.22;;
42006;SDS011;27696;42.704;23.304;2022-08-19T10:13:37;6.10;;;3.67;;
42006;SDS011;27696;42.704;23.304;2022-08-19T10:16:07;5.22;;;3.72;;
42006;SDS011;27696;42.704;23.304;2022-08-19T10:18:35;8.32;;;3.95;;
42006;SDS011;27696;42.704;23.304;2022-08-19T10:23:32;6.85;;;3.90;;
42006;SDS011;27696;42.704;23.304;2022-08-19T10:25:59;4.85;;;3.95;;
42006;SDS011;27696;42.704;23.304;2022-08-19T10:28:25;3.55;;;3.25;;
42006;SDS011;27696;42.704;23.304;2022-08-19T10:30:51;4.72;;;3.55;;
42006;SDS011;27696;42.704;23.304;2022-08-19T10:33:17;5.18;;;3.55;;
42006;SDS011;27696;42.704;23.304;2022-08-19T10:35:42;4.72;;;3.55;;
42006;SDS011;27696;42.704;23.304;2022-08-19T10:38:08;6.75;;;4.43;;
42006;SDS011;27696;42.704;23.304;2022-08-19T10:40:33;4.80;;;3.80;;
42006;SDS011;27696;42.704;23.304;2022-08-19T10:42:59;3.97;;;3.60;;
42006;SDS011;27696;42.704;23.304;2022-08-19T10:45:25;4.85;;;3.88;;
42006;SDS011;27696;42.704;23.304;2022-08-19T10:47:52;4.20;;;3.80;;
42006;SDS011;27696;42.704;23.304;2022-08-19T10:50:18;5.25;;;3.63;;
42006;SDS011;27696;42.704;23.304;2022-08-19T10:55:33;3.72;;;3.42;;
42006;SDS011;27696;42.704;23.304;2022-08-19T10:58:18;4.25;;;3.85;;
42006;SDS011;27696;42.704;23.304;2022-08-19T11:00:57;4.40;;;4.00;;
42006;SDS011;27696;42.704;23.304;2022-08-19T11:30:30;6.30;;;3.93;;
42006;SDS011;27696;42.704;23.304;2022-08-19T11:32:55;5.70;;;4.10;;
42006;SDS011;27696;42.704;23.304;2022-08-19T11:35:21;8.83;;;4.30;;
42006;SDS011;27696;42.704;23.304;2022-08-19T11:40:13;5.60;;;3.93;;
42006;SDS011;27696;42.704;23.304;2022-08-19T11:42:39;5.40;;;4.43;;
42006;SDS011;27696;42.704;23.304;2022-08-19T11:59:54;6.35;;;4.45;;
42006;SDS011;27696;42.704;23.304;2022-08-19T12:02:19;5.93;;;4.10;;
42006;SDS011;27696;42.704;23.304;2022-08-19T12:04:46;7.75;;;4.15;;
42006;SDS011;27696;42.704;23.304;2022-08-19T12:07:12;5.18;;;3.72;;
42006;SDS011;27696;42.704;23.304;2022-08-19T12:09:37;7.47;;;4.53;;
42006;SDS011;27696;42.704;23.304;2022-08-19T12:50:58;6.35;;;3.70;;
42006;SDS011;27696;42.704;23.304;2022-08-19T12:53:23;7.45;;;4.22;;
42006;SDS011;27696;42.704;23.304;2022-08-19T12:55:56;6.63;;;3.63;;
42006;SDS011;27696;42.704;23.304;2022-08-19T12:58:23;6.82;;;3.90;;
42006;SDS011;27696;42.704;23.304;2022-08-19T13:00:48;5.10;;;4.18;;
42006;SDS011;27696;42.704;23.304;2022-08-19T13:03:14;6.85;;;3.83;;
42006;SDS011;27696;42.704;23.304;2022-08-19T13:05:40;8.43;;;4.18;;
42006;SDS011;27696;42.704;23.304;2022-08-19T13:08:06;5.85;;;4.20;;
42006;SDS011;27696;42.704;23.304;2022-08-19T13:10:32;6.30;;;4.10;;
42006;SDS011;27696;42.704;23.304;2022-08-19T13:15:26;4.63;;;3.60;;
42006;SDS011;27696;42.704;23.304;2022-08-19T13:17:53;6.88;;;3.90;;
42006;SDS011;27696;42.704;23.304;2022-08-19T13:20:20;6.68;;;4.00;;
42006;SDS011;27696;42.704;23.304;2022-08-19T13:22:47;11.80;;;4.00;;
42006;SDS011;27696;42.704;23.304;2022-08-19T13:25:13;6.28;;;4.38;;
42006;SDS011;27696;42.704;23.304;2022-08-19T13:27:42;4.72;;;4.25;;
42006;SDS011;27696;42.704;23.304;2022-08-19T13:30:08;5.38;;;4.10;;
